sensor_id;sensor_type;location;lat;lon;timestamp;pressure;altitude;pressure_sealevel;temperature;humidity
28683;BME280;15862;43.062;25.626;2022-11-20T00:01:40;99396.69;;;18.80;100.00
28683;BME280;15862;43.062;25.626;2022-11-20T00:04:05;99386.72;;;18.76;100.00
28683;BME280;15862;43.062;25.626;2022-11-20T00:06:31;99391.63;;;18.79;100.00
28683;BME280;15862;43.062;25.626;2022-11-20T00:08:58;99386.38;;;18.79;100.00
28683;BME280;15862;43.062;25.626;2022-11-20T00:11:26;99389.66;;;18.81;100.00
28683;BME280;15862;43.062;25.626;2022-11-20T00:13:55;99383.69;;;18.87;100.00
28683;BME280;15862;43.062;25.626;2022-11-20T00:16:23;99389.22;;;18.92;100.00
28683;BME280;15862;43.062;25.626;2022-11-20T00:18:49;99371.72;;;18.92;100.00
28683;BME280;15862;43.062;25.626;2022-11-20T00:21:18;99367.16;;;18.86;100.00
28683;BME280;15862;43.062;25.626;2022-11-20T00:23:44;99363.03;;;18.92;100.00
28683;BME280;15862;43.062;25.626;2022-11-20T00:26:12;99369.03;;;19.00;100.00
28683;BME280;15862;43.062;25.626;2022-11-20T00:28:38;99375.06;;;19.01;100.00
28683;BME280;15862;43.062;25.626;2022-11-20T00:31:10;99369.94;;;19.07;100.00
28683;BME280;15862;43.062;25.626;2022-11-20T00:33:35;99357.38;;;19.03;100.00
28683;BME280;15862;43.062;25.626;2022-11-20T00:36:09;99346.66;;;19.12;100.00
28683;BME280;15862;43.062;25.626;2022-11-20T00:38:34;99367.44;;;19.28;100.00
28683;BME280;15862;43.062;25.626;2022-11-20T00:41:03;99358.31;;;19.38;100.00
28683;BME280;15862;43.062;25.626;2022-11-20T00:43:29;99351.53;;;19.44;100.00
28683;BME280;15862;43.062;25.626;2022-11-20T00:48:23;99340.22;;;19.43;100.00
28683;BME280;15862;43.062;25.626;2022-11-20T00:50:49;99341.22;;;19.42;100.00
28683;BME280;15862;43.062;25.626;2022-11-20T00:53:14;99350.81;;;19.50;100.00
28683;BME280;15862;43.062;25.626;2022-11-20T00:55:40;99352.53;;;19.43;100.00
28683;BME280;15862;43.062;25.626;2022-11-20T00:58:06;99364.06;;;19.48;100.00
28683;BME280;15862;43.062;25.626;2022-11-20T01:00:31;99359.22;;;19.45;100.00
28683;BME280;15862;43.062;25.626;2022-11-20T01:02:57;99355.59;;;19.46;100.00
28683;BME280;15862;43.062;25.626;2022-11-20T01:05:22;99356.84;;;19.50;100.00
28683;BME280;15862;43.062;25.626;2022-11-20T01:07:47;99367.72;;;19.47;100.00
28683;BME280;15862;43.062;25.626;2022-11-20T01:10:13;99348.00;;;19.51;100.00
28683;BME280;15862;43.062;25.626;2022-11-20T01:12:38;99349.69;;;19.59;100.00
28683;BME280;15862;43.062;25.626;2022-11-20T01:15:04;99343.66;;;19.58;100.00
28683;BME280;15862;43.062;25.626;2022-11-20T01:17:31;99360.28;;;19.65;100.00
28683;BME280;15862;43.062;25.626;2022-11-20T01:19:56;99348.69;;;19.74;100.00
28683;BME280;15862;43.062;25.626;2022-11-20T01:22:22;99331.53;;;19.72;100.00
28683;BME280;15862;43.062;25.626;2022-11-20T01:24:47;99327.19;;;19.64;100.00
28683;BME280;15862;43.062;25.626;2022-11-20T01:27:13;99330.88;;;19.70;100.00
28683;BME280;15862;43.062;25.626;2022-11-20T01:29:38;99337.97;;;19.69;100.00
28683;BME280;15862;43.062;25.626;2022-11-20T01:32:04;99327.19;;;19.64;100.00
28683;BME280;15862;43.062;25.626;2022-11-20T01:34:29;99324.13;;;19.61;100.00
28683;BME280;15862;43.062;25.626;2022-11-20T01:36:55;99317.53;;;19.65;100.00
28683;BME280;15862;43.062;25.626;2022-11-20T01:39:22;99309.72;;;19.71;100.00
28683;BME280;15862;43.062;25.626;2022-11-20T01:41:49;99312.19;;;19.58;100.00
28683;BME280;15862;43.062;25.626;2022-11-20T01:47:14;99294.75;;;19.65;100.00
28683;BME280;15862;43.062;25.626;2022-11-20T01:49:46;99293.84;;;19.58;100.00
28683;BME280;15862;43.062;25.626;2022-11-20T01:52:20;99299.72;;;19.60;100.00
28683;BME280;15862;43.062;25.626;2022-11-20T01:54:53;99318.63;;;19.56;100.00
28683;BME280;15862;43.062;25.626;2022-11-20T01:57:20;99307.94;;;19.57;100.00
28683;BME280;15862;43.062;25.626;2022-11-20T01:59:56;99304.00;;;19.47;100.00
28683;BME280;15862;43.062;25.626;2022-11-20T02:02:24;99316.28;;;19.46;100.00
28683;BME280;15862;43.062;25.626;2022-11-20T02:04:51;99318.44;;;19.57;100.00
28683;BME280;15862;43.062;25.626;2022-11-20T02:07:19;99321.06;;;19.57;100.00
28683;BME280;15862;43.062;25.626;2022-11-20T02:09:45;99326.94;;;19.59;100.00
28683;BME280;15862;43.062;25.626;2022-11-20T02:12:10;99300.09;;;19.57;100.00
28683;BME280;15862;43.062;25.626;2022-11-20T02:14:56;99298.41;;;19.35;100.00
28683;BME280;15862;43.062;25.626;2022-11-20T02:17:23;99314.38;;;19.40;100.00
28683;BME280;15862;43.062;25.626;2022-11-20T02:19:48;99304.28;;;19.37;100.00
28683;BME280;15862;43.062;25.626;2022-11-20T02:22:19;99310.16;;;19.39;100.00
28683;BME280;15862;43.062;25.626;2022-11-20T02:24:48;99298.94;;;19.45;100.00
28683;BME280;15862;43.062;25.626;2022-11-20T02:27:15;99307.34;;;19.41;100.00
28683;BME280;15862;43.062;25.626;2022-11-20T02:29:52;99303.19;;;19.46;100.00
28683;BME280;15862;43.062;25.626;2022-11-20T02:32:22;99300.81;;;19.51;100.00
28683;BME280;15862;43.062;25.626;2022-11-20T02:34:48;99307.69;;;19.52;100.00
28683;BME280;15862;43.062;25.626;2022-11-20T02:37:14;99290.88;;;19.47;100.00
28683;BME280;15862;43.062;25.626;2022-11-20T02:39:41;99302.25;;;19.54;100.00
28683;BME280;15862;43.062;25.626;2022-11-20T02:42:07;99286.34;;;19.55;100.00
28683;BME280;15862;43.062;25.626;2022-11-20T02:44:32;99280.22;;;19.48;100.00
28683;BME280;15862;43.062;25.626;2022-11-20T02:46:58;99281.84;;;19.49;100.00
28683;BME280;15862;43.062;25.626;2022-11-20T02:49:25;99293.59;;;19.53;100.00
28683;BME280;15862;43.062;25.626;2022-11-20T02:51:50;99278.63;;;19.47;100.00
28683;BME280;15862;43.062;25.626;2022-11-20T02:54:16;99281.25;;;19.47;100.00
28683;BME280;15862;43.062;25.626;2022-11-20T02:56:41;99274.97;;;19.48;100.00
28683;BME280;15862;43.062;25.626;2022-11-20T02:59:07;99263.78;;;19.54;100.00
28683;BME280;15862;43.062;25.626;2022-11-20T03:01:33;99266.75;;;19.51;100.00
28683;BME280;15862;43.062;25.626;2022-11-20T03:03:58;99268.94;;;19.48;100.00
28683;BME280;15862;43.062;25.626;2022-11-20T03:06:24;99282.94;;;19.40;100.00
28683;BME280;15862;43.062;25.626;2022-11-20T03:08:50;99278.09;;;19.37;100.00
28683;BME280;15862;43.062;25.626;2022-11-20T03:11:16;99266.88;;;19.43;100.00
28683;BME280;15862;43.062;25.626;2022-11-20T03:13:42;99250.59;;;19.33;100.00
28683;BME280;15862;43.062;25.626;2022-11-20T03:16:13;99250.25;;;19.36;100.00
28683;BME280;15862;43.062;25.626;2022-11-20T03:18:40;99259.63;;;19.45;100.00
28683;BME280;15862;43.062;25.626;2022-11-20T03:21:07;99248.19;;;19.32;100.00
28683;BME280;15862;43.062;25.626;2022-11-20T03:23:34;99243.53;;;19.48;100.00
28683;BME280;15862;43.062;25.626;2022-11-20T03:28:36;99249.25;;;19.37;100.00
28683;BME280;15862;43.062;25.626;2022-11-20T03:31:11;99260.38;;;19.39;100.00
28683;BME280;15862;43.062;25.626;2022-11-20T03:33:37;99274.47;;;19.38;100.00
28683;BME280;15862;43.062;25.626;2022-11-20T03:36:04;99258.84;;;19.30;100.00
28683;BME280;15862;43.062;25.626;2022-11-20T03:38:31;99242.59;;;19.20;100.00
28683;BME280;15862;43.062;25.626;2022-11-20T03:41:05;99267.91;;;19.28;100.00
28683;BME280;15862;43.062;25.626;2022-11-20T03:43:31;99266.78;;;19.37;100.00
28683;BME280;15862;43.062;25.626;2022-11-20T03:45:57;99267.41;;;19.39;100.00
28683;BME280;15862;43.062;25.626;2022-11-20T03:48:23;99269.22;;;19.38;100.00
28683;BME280;15862;43.062;25.626;2022-11-20T03:50:49;99264.72;;;19.32;100.00
28683;BME280;15862;43.062;25.626;2022-11-20T03:53:15;99261.19;;;19.40;100.00
28683;BME280;15862;43.062;25.626;2022-11-20T03:55:41;99274.63;;;19.51;100.00
28683;BME280;15862;43.062;25.626;2022-11-20T03:58:06;99273.09;;;19.42;100.00
28683;BME280;15862;43.062;25.626;2022-11-20T04:00:32;99274.09;;;19.41;100.00
28683;BME280;15862;43.062;25.626;2022-11-20T04:02:58;99290.53;;;19.35;100.00
28683;BME280;15862;43.062;25.626;2022-11-20T04:05:24;99266.59;;;19.38;100.00
28683;BME280;15862;43.062;25.626;2022-11-20T04:07:49;99266.72;;;19.30;100.00
28683;BME280;15862;43.062;25.626;2022-11-20T04:10:15;99299.41;;;19.34;100.00
28683;BME280;15862;43.062;25.626;2022-11-20T04:12:40;99281.34;;;19.39;100.00
28683;BME280;15862;43.062;25.626;2022-11-20T04:15:06;99293.34;;;19.34;100.00
28683;BME280;15862;43.062;25.626;2022-11-20T04:17:32;99293.53;;;19.32;100.00
28683;BME280;15862;43.062;25.626;2022-11-20T04:19:57;99305.91;;;19.38;100.00
28683;BME280;15862;43.062;25.626;2022-11-20T04:22:22;99305.91;;;19.38;100.00
28683;BME280;15862;43.062;25.626;2022-11-20T04:24:48;99281.97;;;19.27;100.00
28683;BME280;15862;43.062;25.626;2022-11-20T04:27:13;99285.50;;;19.19;100.00
28683;BME280;15862;43.062;25.626;2022-11-20T04:29:39;99299.50;;;19.26;100.00
28683;BME280;15862;43.062;25.626;2022-11-20T04:32:04;99301.50;;;19.24;100.00
28683;BME280;15862;43.062;25.626;2022-11-20T04:34:29;99283.31;;;19.09;100.00
28683;BME280;15862;43.062;25.626;2022-11-20T04:36:55;99297.53;;;19.14;100.00
28683;BME280;15862;43.062;25.626;2022-11-20T04:39:20;99281.06;;;19.06;100.00
28683;BME280;15862;43.062;25.626;2022-11-20T04:41:46;99289.38;;;19.09;100.00
28683;BME280;15862;43.062;25.626;2022-11-20T04:44:11;99288.22;;;19.12;100.00
28683;BME280;15862;43.062;25.626;2022-11-20T04:46:40;99290.28;;;19.16;100.00
28683;BME280;15862;43.062;25.626;2022-11-20T04:49:06;99292.47;;;19.13;100.00
28683;BME280;15862;43.062;25.626;2022-11-20T04:51:32;99286.38;;;18.98;100.00
28683;BME280;15862;43.062;25.626;2022-11-20T04:53:58;99310.59;;;19.00;100.00
28683;BME280;15862;43.062;25.626;2022-11-20T04:56:23;99306.53;;;18.97;100.00
28683;BME280;15862;43.062;25.626;2022-11-20T04:58:49;99320.34;;;19.06;100.00
28683;BME280;15862;43.062;25.626;2022-11-20T05:01:17;99306.38;;;19.13;100.00
28683;BME280;15862;43.062;25.626;2022-11-20T05:03:43;99300.16;;;19.14;100.00
28683;BME280;15862;43.062;25.626;2022-11-20T05:06:11;99303.44;;;19.08;100.00
28683;BME280;15862;43.062;25.626;2022-11-20T05:08:37;99320.53;;;19.18;100.00
28683;BME280;15862;43.062;25.626;2022-11-20T05:11:05;99318.56;;;19.20;100.00
28683;BME280;15862;43.062;25.626;2022-11-20T05:13:31;99315.69;;;19.16;100.00
28683;BME280;15862;43.062;25.626;2022-11-20T05:16:08;99327.19;;;19.07;100.00
28683;BME280;15862;43.062;25.626;2022-11-20T05:18:34;99307.56;;;19.11;100.00
28683;BME280;15862;43.062;25.626;2022-11-20T05:21:00;99313.31;;;19.20;100.00
28683;BME280;15862;43.062;25.626;2022-11-20T05:23:26;99307.34;;;19.26;100.00
28683;BME280;15862;43.062;25.626;2022-11-20T05:25:53;99296.06;;;19.12;100.00
28683;BME280;15862;43.062;25.626;2022-11-20T05:28:18;99314.84;;;19.15;100.00
28683;BME280;15862;43.062;25.626;2022-11-20T05:30:44;99321.81;;;19.22;100.00
28683;BME280;15862;43.062;25.626;2022-11-20T05:33:09;99320.34;;;19.34;100.00
28683;BME280;15862;43.062;25.626;2022-11-20T05:35:35;99324.31;;;19.45;100.00
28683;BME280;15862;43.062;25.626;2022-11-20T05:38:00;99312.41;;;19.42;100.00
28683;BME280;15862;43.062;25.626;2022-11-20T05:40:25;99319.16;;;19.51;100.00
28683;BME280;15862;43.062;25.626;2022-11-20T05:42:51;99318.25;;;19.59;100.00
28683;BME280;15862;43.062;25.626;2022-11-20T05:45:16;99309.47;;;19.66;100.00
28683;BME280;15862;43.062;25.626;2022-11-20T05:47:42;99294.03;;;19.57;100.00
28683;BME280;15862;43.062;25.626;2022-11-20T05:50:07;99309.22;;;19.61;100.00
28683;BME280;15862;43.062;25.626;2022-11-20T05:52:33;99311.09;;;19.67;100.00
28683;BME280;15862;43.062;25.626;2022-11-20T05:54:58;99311.09;;;19.67;100.00
28683;BME280;15862;43.062;25.626;2022-11-20T05:57:23;99315.72;;;19.65;100.00
28683;BME280;15862;43.062;25.626;2022-11-20T05:59:49;99315.47;;;19.60;100.00
28683;BME280;15862;43.062;25.626;2022-11-20T06:02:14;99328.38;;;19.62;100.00
28683;BME280;15862;43.062;25.626;2022-11-20T06:04:40;99322.69;;;19.58;100.00
28683;BME280;15862;43.062;25.626;2022-11-20T06:07:05;99333.81;;;19.60;100.00
28683;BME280;15862;43.062;25.626;2022-11-20T06:09:31;99330.66;;;19.50;100.00
28683;BME280;15862;43.062;25.626;2022-11-20T06:11:57;99348.44;;;19.55;100.00
28683;BME280;15862;43.062;25.626;2022-11-20T06:14:23;99341.22;;;19.57;100.00
28683;BME280;15862;43.062;25.626;2022-11-20T06:16:48;99349.25;;;19.55;100.00
28683;BME280;15862;43.062;25.626;2022-11-20T06:19:14;99359.13;;;19.53;100.00
28683;BME280;15862;43.062;25.626;2022-11-20T06:21:40;99349.38;;;19.47;100.00
28683;BME280;15862;43.062;25.626;2022-11-20T06:24:06;99348.44;;;19.55;100.00
28683;BME280;15862;43.062;25.626;2022-11-20T06:26:31;99340.03;;;19.59;100.00
28683;BME280;15862;43.062;25.626;2022-11-20T06:28:56;99347.88;;;19.74;100.00
28683;BME280;15862;43.062;25.626;2022-11-20T06:31:23;99349.44;;;19.68;100.00
28683;BME280;15862;43.062;25.626;2022-11-20T06:33:50;99354.03;;;19.66;100.00
28683;BME280;15862;43.062;25.626;2022-11-20T06:36:18;99374.38;;;19.64;96.77
28683;BME280;15862;43.062;25.626;2022-11-20T06:38:44;99387.13;;;19.24;94.74
28683;BME280;15862;43.062;25.626;2022-11-20T06:41:13;99387.72;;;18.38;94.10
28683;BME280;15862;43.062;25.626;2022-11-20T06:43:39;99413.41;;;17.96;95.41
28683;BME280;15862;43.062;25.626;2022-11-20T06:46:04;99413.59;;;17.57;96.18
28683;BME280;15862;43.062;25.626;2022-11-20T06:48:30;99428.16;;;17.19;96.62
28683;BME280;15862;43.062;25.626;2022-11-20T06:50:56;99443.69;;;16.89;98.57
28683;BME280;15862;43.062;25.626;2022-11-20T06:53:22;99433.53;;;16.30;100.00
28683;BME280;15862;43.062;25.626;2022-11-20T06:55:49;99468.00;;;16.16;100.00
28683;BME280;15862;43.062;25.626;2022-11-20T06:58:15;99476.34;;;16.28;100.00
28683;BME280;15862;43.062;25.626;2022-11-20T07:00:41;99493.22;;;16.57;100.00
28683;BME280;15862;43.062;25.626;2022-11-20T07:03:08;99489.69;;;17.06;96.50
28683;BME280;15862;43.062;25.626;2022-11-20T07:05:35;99516.44;;;17.56;92.58
28683;BME280;15862;43.062;25.626;2022-11-20T07:08:01;99528.03;;;17.13;95.11
28683;BME280;15862;43.062;25.626;2022-11-20T07:10:27;99545.84;;;16.37;99.17
28683;BME280;15862;43.062;25.626;2022-11-20T07:12:53;99556.25;;;15.78;100.00
28683;BME280;15862;43.062;25.626;2022-11-20T07:15:21;99564.53;;;14.96;100.00
28683;BME280;15862;43.062;25.626;2022-11-20T07:17:47;99577.19;;;14.64;100.00
28683;BME280;15862;43.062;25.626;2022-11-20T07:20:13;99560.00;;;14.37;100.00
28683;BME280;15862;43.062;25.626;2022-11-20T07:22:39;99569.31;;;14.30;100.00
28683;BME280;15862;43.062;25.626;2022-11-20T07:25:05;99578.16;;;14.00;100.00
28683;BME280;15862;43.062;25.626;2022-11-20T07:27:31;99579.22;;;13.62;100.00
28683;BME280;15862;43.062;25.626;2022-11-20T07:29:56;99590.72;;;13.31;100.00
28683;BME280;15862;43.062;25.626;2022-11-20T07:32:22;99601.22;;;13.10;100.00
28683;BME280;15862;43.062;25.626;2022-11-20T07:34:48;99595.09;;;12.93;100.00
28683;BME280;15862;43.062;25.626;2022-11-20T07:37:14;99592.75;;;12.90;100.00
28683;BME280;15862;43.062;25.626;2022-11-20T07:39:39;99593.16;;;12.95;100.00
28683;BME280;15862;43.062;25.626;2022-11-20T07:42:08;99580.31;;;12.84;100.00
28683;BME280;15862;43.062;25.626;2022-11-20T07:44:34;99614.44;;;12.89;100.00
28683;BME280;15862;43.062;25.626;2022-11-20T07:46:59;99606.38;;;12.82;100.00
28683;BME280;15862;43.062;25.626;2022-11-20T07:49:25;99596.78;;;12.64;100.00
28683;BME280;15862;43.062;25.626;2022-11-20T07:51:51;99598.69;;;12.71;100.00
28683;BME280;15862;43.062;25.626;2022-11-20T07:54:18;99593.97;;;12.86;100.00
28683;BME280;15862;43.062;25.626;2022-11-20T07:56:43;99602.44;;;12.88;100.00
28683;BME280;15862;43.062;25.626;2022-11-20T07:59:09;99588.22;;;12.82;100.00
28683;BME280;15862;43.062;25.626;2022-11-20T08:01:37;99599.41;;;12.83;100.00
28683;BME280;15862;43.062;25.626;2022-11-20T08:04:02;99599.84;;;12.88;100.00
28683;BME280;15862;43.062;25.626;2022-11-20T08:06:28;99602.59;;;12.96;100.00
28683;BME280;15862;43.062;25.626;2022-11-20T08:08:53;99609.97;;;13.00;100.00
28683;BME280;15862;43.062;25.626;2022-11-20T08:11:19;99611.66;;;12.81;100.00
28683;BME280;15862;43.062;25.626;2022-11-20T08:14:03;99617.94;;;12.78;100.00
28683;BME280;15862;43.062;25.626;2022-11-20T08:16:42;99596.88;;;12.53;100.00
28683;BME280;15862;43.062;25.626;2022-11-20T08:19:10;99620.09;;;12.64;100.00
28683;BME280;15862;43.062;25.626;2022-11-20T08:21:36;99617.59;;;12.53;100.00
28683;BME280;15862;43.062;25.626;2022-11-20T08:24:02;99636.47;;;12.64;100.00
28683;BME280;15862;43.062;25.626;2022-11-20T08:26:27;99630.22;;;12.76;100.00
28683;BME280;15862;43.062;25.626;2022-11-20T08:28:54;99628.28;;;12.69;100.00
28683;BME280;15862;43.062;25.626;2022-11-20T08:31:20;99619.56;;;12.70;100.00
28683;BME280;15862;43.062;25.626;2022-11-20T08:33:46;99633.34;;;12.70;100.00
28683;BME280;15862;43.062;25.626;2022-11-20T08:36:11;99620.91;;;12.55;100.00
28683;BME280;15862;43.062;25.626;2022-11-20T08:38:37;99644.25;;;12.74;100.00
28683;BME280;15862;43.062;25.626;2022-11-20T08:41:04;99630.09;;;12.78;100.00
28683;BME280;15862;43.062;25.626;2022-11-20T08:43:49;99609.91;;;12.72;100.00
28683;BME280;15862;43.062;25.626;2022-11-20T08:46:14;99635.28;;;12.78;100.00
28683;BME280;15862;43.062;25.626;2022-11-20T08:48:40;99634.34;;;12.79;100.00
28683;BME280;15862;43.062;25.626;2022-11-20T08:51:05;99625.72;;;12.78;100.00
28683;BME280;15862;43.062;25.626;2022-11-20T08:53:31;99630.50;;;12.83;100.00
28683;BME280;15862;43.062;25.626;2022-11-20T08:55:57;99625.72;;;12.78;100.00
28683;BME280;15862;43.062;25.626;2022-11-20T08:58:23;99619.59;;;12.79;100.00
28683;BME280;15862;43.062;25.626;2022-11-20T09:00:49;99614.00;;;12.84;100.00
28683;BME280;15862;43.062;25.626;2022-11-20T09:03:14;99615.16;;;12.91;100.00
28683;BME280;15862;43.062;25.626;2022-11-20T09:05:39;99588.19;;;12.73;100.00
28683;BME280;15862;43.062;25.626;2022-11-20T09:08:05;99592.56;;;12.82;100.00
28683;BME280;15862;43.062;25.626;2022-11-20T09:10:30;99592.16;;;12.77;100.00
28683;BME280;15862;43.062;25.626;2022-11-20T09:12:57;99584.94;;;12.80;100.00
28683;BME280;15862;43.062;25.626;2022-11-20T09:15:23;99590.69;;;12.84;100.00
28683;BME280;15862;43.062;25.626;2022-11-20T09:20:18;99583.69;;;12.84;100.00
28683;BME280;15862;43.062;25.626;2022-11-20T09:22:44;99584.78;;;12.82;100.00
28683;BME280;15862;43.062;25.626;2022-11-20T09:25:09;99583.03;;;12.82;100.00
28683;BME280;15862;43.062;25.626;2022-11-20T09:27:35;99582.50;;;12.79;100.00
28683;BME280;15862;43.062;25.626;2022-11-20T09:30:01;99576.47;;;12.78;100.00
28683;BME280;15862;43.062;25.626;2022-11-20T09:32:26;99562.00;;;12.76;100.00
28683;BME280;15862;43.062;25.626;2022-11-20T09:34:51;99569.78;;;12.66;100.00
28683;BME280;15862;43.062;25.626;2022-11-20T09:37:17;99553.69;;;12.63;100.00
28683;BME280;15862;43.062;25.626;2022-11-20T09:39:43;99552.03;;;12.52;100.00
28683;BME280;15862;43.062;25.626;2022-11-20T09:47:50;99562.13;;;12.65;100.00
28683;BME280;15862;43.062;25.626;2022-11-20T09:50:23;99551.38;;;12.79;100.00
28683;BME280;15862;43.062;25.626;2022-11-20T09:53:11;99544.19;;;12.92;100.00
28683;BME280;15862;43.062;25.626;2022-11-20T09:55:38;99531.75;;;12.86;100.00
28683;BME280;15862;43.062;25.626;2022-11-20T09:58:29;99536.25;;;13.02;100.00
28683;BME280;15862;43.062;25.626;2022-11-20T10:01:44;99532.03;;;13.11;100.00
28683;BME280;15862;43.062;25.626;2022-11-20T10:09:37;99525.47;;;13.16;100.00
28683;BME280;15862;43.062;25.626;2022-11-20T10:30:44;99509.09;;;12.88;100.00
28683;BME280;15862;43.062;25.626;2022-11-20T10:33:22;99506.50;;;12.88;100.00
28683;BME280;15862;43.062;25.626;2022-11-20T10:38:25;99512.66;;;13.05;100.00
28683;BME280;15862;43.062;25.626;2022-11-20T10:40:59;99504.16;;;13.32;100.00
28683;BME280;15862;43.062;25.626;2022-11-20T10:43:45;99491.31;;;13.30;100.00
28683;BME280;15862;43.062;25.626;2022-11-20T10:46:19;99494.03;;;13.38;100.00
28683;BME280;15862;43.062;25.626;2022-11-20T10:48:48;99482.81;;;13.47;100.00
28683;BME280;15862;43.062;25.626;2022-11-20T10:54:06;99491.69;;;13.90;100.00
28683;BME280;15862;43.062;25.626;2022-11-20T10:56:53;99486.06;;;13.95;100.00
28683;BME280;15862;43.062;25.626;2022-11-20T11:02:14;99484.44;;;14.21;100.00
28683;BME280;15862;43.062;25.626;2022-11-20T11:04:43;99487.94;;;14.29;100.00
28683;BME280;15862;43.062;25.626;2022-11-20T11:07:31;99479.69;;;14.34;100.00
28683;BME280;15862;43.062;25.626;2022-11-20T11:09:59;99480.13;;;14.29;100.00
28683;BME280;15862;43.062;25.626;2022-11-20T11:12:26;99473.38;;;14.36;100.00
28683;BME280;15862;43.062;25.626;2022-11-20T11:14:56;99468.44;;;14.43;100.00
28683;BME280;15862;43.062;25.626;2022-11-20T11:17:29;99474.91;;;14.56;100.00
28683;BME280;15862;43.062;25.626;2022-11-20T11:19:59;99468.69;;;14.66;100.00
28683;BME280;15862;43.062;25.626;2022-11-20T11:22:28;99469.13;;;14.62;100.00
28683;BME280;15862;43.062;25.626;2022-11-20T11:24:54;99464.63;;;14.72;100.00
28683;BME280;15862;43.062;25.626;2022-11-20T11:27:19;99467.03;;;14.83;100.00
28683;BME280;15862;43.062;25.626;2022-11-20T11:29:45;99464.34;;;14.75;100.00
28683;BME280;15862;43.062;25.626;2022-11-20T11:32:14;99469.53;;;14.92;100.00
28683;BME280;15862;43.062;25.626;2022-11-20T11:34:40;99471.91;;;15.03;100.00
28683;BME280;15862;43.062;25.626;2022-11-20T11:37:13;99452.47;;;15.15;100.00
28683;BME280;15862;43.062;25.626;2022-11-20T11:39:41;99456.94;;;15.05;100.00
28683;BME280;15862;43.062;25.626;2022-11-20T11:42:11;99454.59;;;14.94;100.00
28683;BME280;15862;43.062;25.626;2022-11-20T11:44:44;99450.44;;;15.01;100.00
28683;BME280;15862;43.062;25.626;2022-11-20T11:47:35;99455.63;;;15.01;100.00
28683;BME280;15862;43.062;25.626;2022-11-20T11:52:51;99464.94;;;14.86;100.00
28683;BME280;15862;43.062;25.626;2022-11-20T12:00:51;99479.34;;;14.81;100.00
28683;BME280;15862;43.062;25.626;2022-11-20T12:03:28;99474.91;;;14.73;100.00
28683;BME280;15862;43.062;25.626;2022-11-20T12:06:14;99488.19;;;14.70;100.00
28683;BME280;15862;43.062;25.626;2022-11-20T12:13:54;99496.81;;;14.53;100.00
28683;BME280;15862;43.062;25.626;2022-11-20T12:16:21;99521.19;;;14.70;100.00
28683;BME280;15862;43.062;25.626;2022-11-20T12:18:52;99509.00;;;14.70;100.00
28683;BME280;15862;43.062;25.626;2022-11-20T12:21:25;99498.75;;;14.52;100.00
28683;BME280;15862;43.062;25.626;2022-11-20T12:38:08;99525.03;;;13.95;100.00
28683;BME280;15862;43.062;25.626;2022-11-20T12:43:55;99524.31;;;13.66;100.00
28683;BME280;15862;43.062;25.626;2022-11-20T12:47:05;99517.81;;;13.43;100.00
28683;BME280;15862;43.062;25.626;2022-11-20T12:54:50;99541.59;;;13.10;100.00
28683;BME280;15862;43.062;25.626;2022-11-20T12:57:36;99521.94;;;12.98;100.00
28683;BME280;15862;43.062;25.626;2022-11-20T13:08:37;99538.19;;;13.00;100.00
28683;BME280;15862;43.062;25.626;2022-11-20T13:16:34;99537.75;;;12.96;100.00
28683;BME280;15862;43.062;25.626;2022-11-20T13:19:03;99519.44;;;12.78;100.00
28683;BME280;15862;43.062;25.626;2022-11-20T13:21:39;99527.06;;;12.80;100.00
28683;BME280;15862;43.062;25.626;2022-11-20T13:27:03;99531.44;;;12.70;100.00
28683;BME280;15862;43.062;25.626;2022-11-20T13:29:29;99524.31;;;12.53;100.00
28683;BME280;15862;43.062;25.626;2022-11-20T13:32:16;99531.41;;;12.51;100.00
28683;BME280;15862;43.062;25.626;2022-11-20T13:34:57;99535.63;;;12.52;100.00
28683;BME280;15862;43.062;25.626;2022-11-20T13:37:37;99533.59;;;12.46;100.00
28683;BME280;15862;43.062;25.626;2022-11-20T13:45:21;99536.72;;;12.40;100.00
28683;BME280;15862;43.062;25.626;2022-11-20T13:47:51;99556.91;;;12.46;100.00
28683;BME280;15862;43.062;25.626;2022-11-20T13:50:17;99552.97;;;12.42;100.00
28683;BME280;15862;43.062;25.626;2022-11-20T14:00:25;99556.69;;;12.19;100.00
28683;BME280;15862;43.062;25.626;2022-11-20T14:05:38;99599.47;;;12.14;100.00
28683;BME280;15862;43.062;25.626;2022-11-20T14:08:06;99580.47;;;12.04;100.00
28683;BME280;15862;43.062;25.626;2022-11-20T14:10:38;99598.00;;;12.20;100.00
28683;BME280;15862;43.062;25.626;2022-11-20T14:13:17;99591.31;;;12.18;100.00
28683;BME280;15862;43.062;25.626;2022-11-20T14:15:43;99595.72;;;12.27;100.00
28683;BME280;15862;43.062;25.626;2022-11-20T14:18:20;99601.56;;;12.29;100.00
28683;BME280;15862;43.062;25.626;2022-11-20T14:20:47;99595.44;;;12.30;100.00
28683;BME280;15862;43.062;25.626;2022-11-20T14:23:12;99598.47;;;12.35;100.00
28683;BME280;15862;43.062;25.626;2022-11-20T14:25:47;99602.69;;;12.36;100.00
28683;BME280;15862;43.062;25.626;2022-11-20T14:28:30;99595.47;;;12.39;100.00
28683;BME280;15862;43.062;25.626;2022-11-20T14:30:56;99604.69;;;12.23;100.00
28683;BME280;15862;43.062;25.626;2022-11-20T14:33:23;99626.63;;;12.19;100.00
28683;BME280;15862;43.062;25.626;2022-11-20T14:35:59;99643.88;;;12.09;100.00
28683;BME280;15862;43.062;25.626;2022-11-20T14:38:26;99660.16;;;12.00;100.00
28683;BME280;15862;43.062;25.626;2022-11-20T14:40:52;99672.69;;;11.95;100.00
28683;BME280;15862;43.062;25.626;2022-11-20T14:43:27;99687.31;;;11.85;100.00